Time;durP1;ratioP1;P1;durP2;ratioP2;P2;SDS_P1;SDS_P2;PMS_P1;PMS_P2;Temp;Humidity;BMP_temperature;BMP_pressure;BME280_temperature;BME280_humidity;BME280_pressure;Samples;Min_cycle;Max_cycle;Signal;HPM_P1;HPM_P2
2023/05/10 00:00:48;;;;;;;3.80;2.20;;;;;;;5.52;100.00;100876.62;105394;1257;60875;-46
2023/05/10 00:03:14;;;;;;;4.00;1.60;;;;;;;5.54;100.00;100878.01;105455;1253;60499;-45
2023/05/10 00:05:41;;;;;;;4.70;1.90;;;;;;;5.57;100.00;100878.34;105409;1253;76529;-47
2023/05/10 00:08:08;;;;;;;2.80;1.20;;;;;;;5.58;100.00;100879.75;105473;1253;70289;-46
2023/05/10 00:10:35;;;;;;;3.70;1.30;;;;;;;5.55;100.00;100876.21;105438;1255;75425;-48
2023/05/10 00:13:01;;;;;;;2.20;1.30;;;;;;;5.53;100.00;100885.32;105369;1252;61620;-47
2023/05/10 00:15:30;;;;;;;2.60;1.40;;;;;;;5.52;100.00;100881.79;109154;1252;60286;-48
2023/05/10 00:17:57;;;;;;;3.60;1.40;;;;;;;5.52;100.00;100882.67;105606;1257;74081;-48
2023/05/10 00:20:23;;;;;;;3.90;1.30;;;;;;;5.52;100.00;100884.27;105451;1253;67677;-47
2023/05/10 00:22:50;;;;;;;3.90;1.50;;;;;;;5.52;100.00;100885.88;105417;1254;71517;-48
2023/05/10 00:25:17;;;;;;;2.60;1.40;;;;;;;5.50;100.00;100881.44;105407;1258;60613;-47
2023/05/10 00:27:44;;;;;;;2.60;1.50;;;;;;;5.49;100.00;100880.20;105439;1254;60457;-47
2023/05/10 00:30:11;;;;;;;3.70;1.80;;;;;;;5.48;100.00;100880.91;105339;1256;75156;-48
2023/05/10 00:32:37;;;;;;;5.80;2.10;;;;;;;5.47;100.00;100884.48;105241;1253;69086;-47
2023/05/10 00:35:04;;;;;;;3.50;2.30;;;;;;;5.43;100.00;100884.54;105353;1253;70685;-48
2023/05/10 00:37:31;;;;;;;5.90;2.00;;;;;;;5.40;100.00;100882.60;106274;1252;60498;-47
2023/05/10 00:39:59;;;;;;;5.30;2.30;;;;;;;5.38;100.00;100881.54;105179;1253;60772;-47
2023/05/10 00:42:26;;;;;;;3.10;1.70;;;;;;;5.37;100.00;100883.50;106670;1257;72886;-47
2023/05/10 00:44:53;;;;;;;5.60;2.50;;;;;;;5.38;100.00;100881.00;106170;1253;70040;-48
2023/05/10 00:47:19;;;;;;;5.50;2.00;;;;;;;5.37;100.00;100880.13;105404;1257;71013;-46
2023/05/10 00:49:46;;;;;;;4.10;1.60;;;;;;;5.33;100.00;100879.27;105218;1254;61161;-47
2023/05/10 00:52:13;;;;;;;5.70;1.60;;;;;;;5.35;100.00;100878.92;105417;1255;61533;-48
2023/05/10 00:54:40;;;;;;;4.60;1.30;;;;;;;5.38;100.00;100883.49;105418;1258;75751;-48
2023/05/10 00:57:07;;;;;;;5.80;1.80;;;;;;;5.41;100.00;100881.52;105278;1254;69174;-48
2023/05/10 00:59:34;;;;;;;2.40;1.60;;;;;;;5.45;100.00;100879.52;105068;1261;72317;-46
2023/05/10 01:02:01;;;;;;;4.60;1.80;;;;;;;5.48;100.00;100882.88;105029;1259;60634;-50
2023/05/10 01:04:28;;;;;;;4.50;2.20;;;;;;;5.52;100.00;100879.98;105521;1257;60405;-51
2023/05/10 01:06:57;;;;;;;3.40;2.00;;;;;;;5.55;100.00;100870.16;105370;1259;74039;-49
2023/05/10 01:09:26;;;;;;;4.70;2.10;;;;;;;5.56;100.00;100871.75;105103;1256;66642;-50
2023/05/10 01:11:53;;;;;;;5.30;2.10;;;;;;;5.58;100.00;100876.73;105113;1254;74789;-49
2023/05/10 01:14:19;;;;;;;3.70;2.00;;;;;;;5.60;100.00;100879.55;105142;1260;60473;-49
2023/05/10 01:16:47;;;;;;;5.10;1.80;;;;;;;5.59;100.00;100881.35;105326;1259;60480;-48
2023/05/10 01:19:20;;;;;;;5.30;1.90;;;;;;;5.56;100.00;100879.94;105754;1255;74448;-48
2023/05/10 01:21:53;;;;;;;4.70;2.00;;;;;;;5.52;100.00;100876.42;105421;1254;67837;-50
2023/05/10 01:24:47;;;;;;;3.50;1.80;;;;;;;5.50;100.00;100881.08;106734;1254;73482;-49
2023/05/10 01:27:17;;;;;;;4.90;1.70;;;;;;;5.50;100.00;100891.05;105524;1256;60692;-48
2023/05/10 01:29:47;;;;;;;6.50;2.60;;;;;;;5.49;100.00;100896.92;105511;1258;61604;-48
2023/05/10 01:32:26;;;;;;;4.10;1.50;;;;;;;5.43;100.00;100894.51;105495;1259;73922;-47
2023/05/10 01:35:00;;;;;;;7.50;2.20;;;;;;;5.35;100.00;100899.55;105394;1259;67128;-48
2023/05/10 01:37:41;;;;;;;5.00;1.60;;;;;;;5.26;100.00;100898.74;105506;1256;73183;-50
2023/05/10 01:40:39;;;;;;;5.70;1.50;;;;;;;5.22;100.00;100901.27;106255;1255;61328;-46
2023/05/10 01:43:12;;;;;;;5.90;1.70;;;;;;;5.20;100.00;100897.35;105206;1259;60553;-49
2023/05/10 01:45:50;;;;;;;4.90;2.00;;;;;;;5.22;100.00;100899.48;105148;1255;74416;-47
2023/05/10 01:48:17;;;;;;;4.60;1.60;;;;;;;5.26;100.00;100902.48;105065;1260;69267;-47
2023/05/10 01:50:44;;;;;;;4.10;1.70;;;;;;;5.27;100.00;100904.42;105724;1256;73268;-50
2023/05/10 01:53:12;;;;;;;3.90;2.00;;;;;;;5.25;100.00;100904.09;105350;1259;61507;-49
2023/05/10 01:55:50;;;;;;;7.30;2.50;;;;;;;5.25;100.00;100906.59;105599;1258;60275;-48
2023/05/10 01:58:23;;;;;;;5.50;1.90;;;;;;;5.27;100.00;100910.30;105564;1255;73496;-47
2023/05/10 02:00:50;;;;;;;8.20;2.90;;;;;;;5.29;100.00;100907.43;105569;1258;70500;-47
2023/05/10 02:03:18;;;;;;;5.70;2.80;;;;;;;5.31;100.00;100911.34;105362;1257;73654;-42
2023/05/10 02:05:45;;;;;;;5.30;2.60;;;;;;;5.30;100.00;100916.48;105008;1253;61380;-47
2023/05/10 02:08:12;;;;;;;5.60;2.20;;;;;;;5.28;100.00;100916.88;105520;1253;61510;-46
2023/05/10 02:10:39;;;;;;;5.30;2.60;;;;;;;5.24;100.00;100911.75;105357;1253;71976;-45
2023/05/10 02:13:07;;;;;;;5.20;2.10;;;;;;;5.22;100.00;100912.29;107234;1254;70023;-47
2023/05/10 02:15:34;;;;;;;10.20;2.90;;;;;;;5.19;100.00;100904.32;106612;1257;74772;-48
2023/05/10 02:18:00;;;;;;;8.10;2.80;;;;;;;5.11;100.00;100889.79;105358;1255;61018;-48
2023/05/10 02:20:27;;;;;;;5.70;2.70;;;;;;;5.07;100.00;100871.33;105302;1253;60533;-46
2023/05/10 02:22:54;;;;;;;4.40;2.20;;;;;;;5.03;100.00;100860.86;105379;1253;74864;-44
2023/05/10 02:25:22;;;;;;;9.10;2.90;;;;;;;5.00;100.00;100846.30;105653;1253;66824;-45
2023/05/10 02:27:49;;;;;;;6.50;2.50;;;;;;;4.96;100.00;100843.65;105951;1251;73842;-45
2023/05/10 02:30:16;;;;;;;6.80;2.40;;;;;;;4.90;100.00;100859.89;105319;1252;61696;-47
2023/05/10 02:32:43;;;;;;;5.10;2.20;;;;;;;4.87;100.00;100886.94;106177;1253;61231;-43
2023/05/10 02:35:10;;;;;;;7.80;3.10;;;;;;;4.87;100.00;100909.89;105359;1253;72022;-42
2023/05/10 02:37:37;;;;;;;7.20;2.80;;;;;;;4.88;100.00;100920.91;105328;1253;70566;-46
2023/05/10 02:40:05;;;;;;;6.10;2.30;;;;;;;4.89;100.00;100926.08;105401;1256;71373;-46
2023/05/10 02:42:33;;;;;;;4.80;2.30;;;;;;;4.88;100.00;100933.00;106591;1256;62379;-46
2023/05/10 02:45:00;;;;;;;5.10;2.60;;;;;;;4.88;100.00;100938.52;105518;1257;60480;-43
2023/05/10 02:47:28;;;;;;;6.40;2.70;;;;;;;4.88;100.00;100941.17;105451;1253;73186;-45
2023/05/10 02:49:55;;;;;;;7.00;3.40;;;;;;;4.88;100.00;100941.19;109217;1253;67395;-45
2023/05/10 02:52:24;;;;;;;6.80;2.60;;;;;;;4.86;100.00;100944.39;109169;1257;74576;-46
2023/05/10 02:54:52;;;;;;;7.70;3.00;;;;;;;4.83;100.00;100940.52;108977;1256;60630;-46
2023/05/10 02:57:23;;;;;;;5.90;2.50;;;;;;;4.83;100.00;100939.98;108952;1253;62456;-45
2023/05/10 02:59:49;;;;;;;6.20;3.00;;;;;;;4.84;100.00;100938.73;109181;1252;76126;-46
2023/05/10 03:02:16;;;;;;;12.00;3.50;;;;;;;4.84;100.00;100941.04;109043;1252;68121;-46
2023/05/10 03:04:43;;;;;;;11.80;2.90;;;;;;;4.80;100.00;100941.77;108998;1253;72407;-45
2023/05/10 03:07:10;;;;;;;9.10;3.40;;;;;;;4.76;100.00;100944.83;109163;1253;58892;-46
2023/05/10 03:09:36;;;;;;;8.30;2.80;;;;;;;4.70;100.00;100948.92;108993;1252;62408;-46
2023/05/10 03:12:03;;;;;;;3.40;2.80;;;;;;;4.66;100.00;100944.70;108965;1256;114717;-46
2023/05/10 03:16:07;;;;;;;8.00;2.90;;;;;;;4.65;100.00;100947.02;102433;1295;600467;-45
2023/05/10 03:19:01;;;;;;;12.80;4.00;;;;;;;4.60;100.00;100944.38;105908;1267;61176;-46
2023/05/10 03:21:28;;;;;;;10.30;3.20;;;;;;;4.60;100.00;100943.30;104966;1267;62427;-46
2023/05/10 03:24:02;;;;;;;10.50;3.70;;;;;;;4.60;100.00;100938.86;106824;1267;74305;-47
2023/05/10 03:26:30;;;;;;;12.90;3.70;;;;;;;4.60;100.00;100932.98;104488;1267;70018;-45
2023/05/10 03:29:02;;;;;;;7.60;3.30;;;;;;;4.61;100.00;100932.27;107992;1263;138085;-47
2023/05/10 03:31:29;;;;;;;9.20;3.20;;;;;;;4.62;100.00;100929.23;108215;1264;61187;-45
2023/05/10 03:33:56;;;;;;;6.90;3.30;;;;;;;4.62;100.00;100932.80;105948;1263;61131;-47
2023/05/10 03:36:25;;;;;;;6.30;2.70;;;;;;;4.64;100.00;100935.47;106227;1264;72773;-47
2023/05/10 03:38:51;;;;;;;7.90;3.70;;;;;;;4.68;100.00;100931.70;104679;1269;67950;-46
2023/05/10 03:41:18;;;;;;;8.50;3.50;;;;;;;4.69;100.00;100935.42;104679;1264;73109;-44
2023/05/10 03:43:46;;;;;;;4.90;2.80;;;;;;;4.70;100.00;100935.60;105565;1262;59647;-45
2023/05/10 03:46:13;;;;;;;8.60;3.40;;;;;;;4.71;100.00;100943.60;105243;1257;61254;-47
2023/05/10 03:48:40;;;;;;;5.90;2.70;;;;;;;4.74;100.00;100944.48;105182;1256;74693;-44
2023/05/10 03:51:07;;;;;;;9.40;3.50;;;;;;;4.76;100.00;100942.34;105099;1257;67825;-46
2023/05/10 03:53:34;;;;;;;9.90;3.80;;;;;;;4.78;100.00;100948.52;105147;1260;73673;-46
2023/05/10 03:56:01;;;;;;;5.70;3.30;;;;;;;4.80;100.00;100948.17;105826;1262;61041;-46
2023/05/10 03:58:27;;;;;;;9.30;3.60;;;;;;;4.82;100.00;100949.60;105246;1263;61777;-45
2023/05/10 04:00:55;;;;;;;8.70;3.30;;;;;;;4.83;100.00;100952.78;105206;1262;74117;-46
2023/05/10 04:03:21;;;;;;;6.10;3.50;;;;;;;4.83;100.00;100948.69;105266;1257;66619;-46
2023/05/10 04:05:48;;;;;;;8.80;3.30;;;;;;;4.89;100.00;100949.36;105327;1256;76352;-45
2023/05/10 04:08:16;;;;;;;4.70;2.50;;;;;;;4.97;100.00;100952.70;105098;1257;59933;-47
2023/05/10 04:10:43;;;;;;;14.10;3.90;;;;;;;5.10;100.00;100957.95;105177;1257;63500;-46
2023/05/10 04:13:10;;;;;;;9.60;3.00;;;;;;;5.28;100.00;100960.83;105641;1257;75098;-46
2023/05/10 04:15:37;;;;;;;5.10;2.50;;;;;;;5.45;100.00;100958.04;105335;1260;67609;-46
2023/05/10 04:18:04;;;;;;;6.20;2.20;;;;;;;5.57;100.00;100957.74;105219;1257;74430;-47
2023/05/10 04:20:34;;;;;;;8.20;2.80;;;;;;;5.67;100.00;100962.11;105163;1257;60970;-45
2023/05/10 04:23:01;;;;;;;5.00;2.10;;;;;;;5.77;100.00;100962.38;105132;1257;61046;-45
2023/05/10 04:25:27;;;;;;;3.80;1.90;;;;;;;5.89;100.00;100960.31;105121;1257;73148;-49
2023/05/10 04:27:54;;;;;;;4.10;1.00;;;;;;;6.04;100.00;100957.31;105010;1263;70396;-46
2023/05/10 04:30:21;;;;;;;1.80;1.00;;;;;;;6.20;100.00;100954.47;105145;1257;74085;-47
2023/05/10 04:32:47;;;;;;;4.10;0.80;;;;;;;6.37;100.00;100961.05;104880;1258;59705;-46
2023/05/10 04:35:14;;;;;;;4.30;0.90;;;;;;;6.53;100.00;100958.88;104732;1257;61338;-47
2023/05/10 04:37:41;;;;;;;2.10;0.70;;;;;;;6.68;100.00;100957.61;104552;1257;76373;-48
2023/05/10 04:40:09;;;;;;;1.20;0.70;;;;;;;6.82;100.00;100953.14;104502;1257;70030;-47
2023/05/10 04:42:35;;;;;;;1.40;0.60;;;;;;;6.98;100.00;100951.31;105234;1260;72472;-46
2023/05/10 04:45:02;;;;;;;1.30;0.80;;;;;;;7.14;100.00;100953.20;104712;1257;59745;-47
2023/05/10 04:47:29;;;;;;;2.40;0.60;;;;;;;7.33;100.00;100950.23;105290;1258;60780;-47
2023/05/10 04:49:56;;;;;;;4.10;0.70;;;;;;;7.50;100.00;100948.52;104923;1257;72681;-43
2023/05/10 04:52:23;;;;;;;1.10;0.70;;;;;;;7.69;100.00;100951.95;104864;1256;68318;-46
2023/05/10 04:54:50;;;;;;;3.70;0.70;;;;;;;7.86;100.00;100956.64;104835;1261;72973;-47
2023/05/10 04:57:17;;;;;;;2.30;0.70;;;;;;;8.02;100.00;100953.84;104971;1258;59991;-46
2023/05/10 04:59:44;;;;;;;1.40;0.70;;;;;;;8.18;100.00;100953.89;104961;1258;62325;-48
2023/05/10 05:02:11;;;;;;;1.20;0.60;;;;;;;8.36;100.00;100954.45;105152;1257;76149;-46
2023/05/10 05:04:37;;;;;;;5.10;0.80;;;;;;;8.53;100.00;100955.54;105126;1257;66406;-46
2023/05/10 05:07:04;;;;;;;4.40;0.70;;;;;;;8.70;100.00;100954.48;105076;1261;72424;-44
2023/05/10 05:09:31;;;;;;;1.20;0.60;;;;;;;8.85;100.00;100955.55;105007;1260;60314;-45
2023/05/10 05:11:58;;;;;;;2.30;0.90;;;;;;;9.00;100.00;100958.27;105273;1262;59953;-47
2023/05/10 05:14:25;;;;;;;3.40;0.60;;;;;;;9.12;100.00;100952.98;105488;1259;72860;-48
2023/05/10 05:16:52;;;;;;;2.50;0.90;;;;;;;9.23;100.00;100950.73;105326;1254;67965;-46
2023/05/10 05:19:19;;;;;;;2.20;0.90;;;;;;;9.34;100.00;100951.55;106274;1256;71120;-48
2023/05/10 05:21:45;;;;;;;1.80;0.50;;;;;;;9.46;100.00;100952.70;104623;1254;60674;-50
2023/05/10 05:24:12;;;;;;;2.30;0.50;;;;;;;9.58;100.00;100953.99;104554;1254;61193;-48
2023/05/10 05:26:39;;;;;;;0.80;0.50;;;;;;;9.69;100.00;100956.06;104809;1259;75184;-44
2023/05/10 05:29:06;;;;;;;3.80;0.60;;;;;;;9.80;100.00;100961.16;105206;1255;69591;-46
2023/05/10 05:31:33;;;;;;;2.30;0.60;;;;;;;9.90;100.00;100961.44;105566;1257;75021;-48
2023/05/10 05:33:59;;;;;;;1.00;0.40;;;;;;;10.00;100.00;100965.48;107034;1259;62267;-48
2023/05/10 05:36:26;;;;;;;1.00;0.60;;;;;;;10.08;100.00;100964.89;105308;1252;60517;-47
2023/05/10 05:38:53;;;;;;;1.10;0.70;;;;;;;10.17;100.00;100969.13;105381;1256;75348;-46
2023/05/10 05:41:21;;;;;;;1.50;0.70;;;;;;;10.28;100.00;100969.75;105332;1257;67989;-46
2023/05/10 05:43:48;;;;;;;2.10;0.50;;;;;;;10.36;100.00;100976.34;105344;1256;75121;-49
2023/05/10 05:46:14;;;;;;;2.70;0.60;;;;;;;10.42;100.00;100977.80;105334;1254;60692;-46
2023/05/10 05:48:41;;;;;;;3.00;0.50;;;;;;;10.49;100.00;100975.23;105382;1259;61738;-45
2023/05/10 05:51:08;;;;;;;1.20;0.60;;;;;;;10.57;100.00;100982.73;105385;1259;73351;-44
2023/05/10 05:53:35;;;;;;;1.00;0.50;;;;;;;10.60;100.00;100981.04;105404;1257;69688;-47
2023/05/10 05:56:01;;;;;;;2.10;0.60;;;;;;;10.64;100.00;100980.73;105363;1259;73109;-48
2023/05/10 05:58:28;;;;;;;3.10;0.50;;;;;;;10.69;100.00;100981.50;105452;1258;60601;-45
2023/05/10 06:00:55;;;;;;;2.80;0.50;;;;;;;10.73;100.00;100983.89;105435;1260;59717;-47
2023/05/10 06:03:22;;;;;;;1.30;0.50;;;;;;;10.83;100.00;100986.13;105431;1259;73755;-45
2023/05/10 06:05:49;;;;;;;2.50;0.60;;;;;;;10.94;100.00;100984.89;105420;1259;70411;-47
2023/05/10 06:08:15;;;;;;;1.10;0.50;;;;;;;11.03;100.00;100988.92;105361;1254;71438;-44
2023/05/10 06:10:42;;;;;;;1.20;0.60;;;;;;;11.09;100.00;100989.80;105086;1260;60482;-48
2023/05/10 06:13:09;;;;;;;2.60;0.60;;;;;;;11.15;100.00;100988.34;104995;1259;61444;-47
2023/05/10 06:15:36;;;;;;;1.30;0.60;;;;;;;11.20;100.00;100988.20;104881;1258;74529;-46
2023/05/10 06:18:03;;;;;;;1.80;0.60;;;;;;;11.26;100.00;100990.16;105038;1254;67894;-45
2023/05/10 06:20:31;;;;;;;2.20;0.70;;;;;;;11.29;100.00;100991.88;105342;1259;70967;-46
2023/05/10 06:22:58;;;;;;;4.90;0.60;;;;;;;11.28;100.00;100988.30;108982;1254;59965;-47
2023/05/10 06:25:25;;;;;;;2.10;0.60;;;;;;;11.26;100.00;100990.50;109052;1257;59388;-49
2023/05/10 06:27:56;;;;;;;1.30;0.50;;;;;;;11.30;100.00;100987.52;109139;1253;73308;-46
2023/05/10 06:30:27;;;;;;;1.90;0.60;;;;;;;11.36;100.00;100983.90;109078;1253;68419;-49
2023/05/10 06:32:54;;;;;;;1.80;0.50;;;;;;;11.45;100.00;100980.20;104990;1254;73594;-46
2023/05/10 06:35:21;;;;;;;2.80;0.50;;;;;;;11.55;100.00;100980.80;105920;1259;60637;-46
2023/05/10 06:37:48;;;;;;;0.90;0.50;;;;;;;11.63;100.00;100983.94;105434;1254;61755;-50
2023/05/10 06:40:15;;;;;;;2.50;0.50;;;;;;;11.68;100.00;100991.84;106734;1260;72010;-46
2023/05/10 06:42:43;;;;;;;2.20;0.50;;;;;;;11.75;100.00;100994.53;105323;1258;68476;-45
2023/05/10 06:45:10;;;;;;;2.50;0.60;;;;;;;11.81;100.00;100992.18;105341;1256;70882;-47
2023/05/10 06:47:37;;;;;;;1.40;0.50;;;;;;;11.87;100.00;100988.55;105380;1254;60555;-46
2023/05/10 06:50:05;;;;;;;4.50;0.40;;;;;;;11.96;100.00;100988.08;107224;1258;60150;-46
2023/05/10 06:52:32;;;;;;;2.40;0.50;;;;;;;12.01;100.00;100993.09;105982;1253;74494;-48
2023/05/10 06:55:00;;;;;;;1.00;0.60;;;;;;;12.03;100.00;100993.01;105056;1262;67197;-43
2023/05/10 06:57:26;;;;;;;2.90;0.60;;;;;;;12.06;100.00;100997.06;105246;1259;72540;-48
2023/05/10 07:00:01;;;;;;;0.80;0.50;;;;;;;12.04;100.00;100994.79;105228;1254;60992;-44
2023/05/10 07:02:28;;;;;;;4.00;0.60;;;;;;;12.01;100.00;100995.41;105355;1252;59621;-45
2023/05/10 07:04:55;;;;;;;1.80;0.70;;;;;;;12.00;100.00;100992.03;105356;1259;73682;-51
2023/05/10 07:07:22;;;;;;;2.90;1.10;;;;;;;12.05;100.00;100989.16;105319;1254;67701;-43
2023/05/10 07:09:49;;;;;;;4.10;0.50;;;;;;;12.11;100.00;100984.63;105428;1254;71636;-47
2023/05/10 07:12:16;;;;;;;1.20;0.40;;;;;;;12.14;100.00;100984.56;105417;1259;61193;-45
2023/05/10 07:14:43;;;;;;;0.80;0.40;;;;;;;12.12;100.00;100979.03;105523;1254;62148;-48
2023/05/10 07:17:10;;;;;;;1.30;0.40;;;;;;;12.13;100.00;100979.52;105381;1254;73960;-45
2023/05/10 07:19:36;;;;;;;0.50;0.40;;;;;;;12.18;100.00;100974.35;105249;1259;67952;-43
2023/05/10 07:22:03;;;;;;;1.50;0.40;;;;;;;12.24;100.00;100973.39;104928;1254;71369;-46
2023/05/10 07:24:31;;;;;;;1.50;0.40;;;;;;;12.32;100.00;100972.91;105072;1256;60414;-45
2023/05/10 07:26:57;;;;;;;3.50;0.40;;;;;;;12.43;100.00;100970.88;105146;1254;62860;-48
2023/05/10 07:29:24;;;;;;;1.10;0.30;;;;;;;12.56;100.00;100972.58;105288;1256;74926;-47
2023/05/10 07:31:51;;;;;;;1.10;0.40;;;;;;;12.62;100.00;100965.33;105452;1259;66953;-49
2023/05/10 07:34:18;;;;;;;1.30;0.40;;;;;;;12.65;100.00;100963.80;105283;1259;74491;-48
2023/05/10 07:36:45;;;;;;;1.00;0.40;;;;;;;12.71;100.00;100957.61;105394;1255;61783;-50
2023/05/10 07:39:11;;;;;;;0.50;0.40;;;;;;;12.82;100.00;100959.34;105420;1259;60413;-47
2023/05/10 07:41:50;;;;;;;2.10;0.40;;;;;;;12.96;100.00;100953.59;105445;1254;76150;-46
2023/05/10 07:44:18;;;;;;;3.80;0.40;;;;;;;13.05;100.00;100953.73;105540;1254;70428;-45
2023/05/10 07:46:46;;;;;;;2.50;0.50;;;;;;;13.14;100.00;100946.92;105967;1259;73797;-46
2023/05/10 07:49:13;;;;;;;1.80;0.40;;;;;;;13.24;100.00;100939.33;105455;1260;62704;-47
2023/05/10 07:51:40;;;;;;;1.30;0.40;;;;;;;13.35;100.00;100939.25;105483;1257;60337;-47
2023/05/10 07:54:06;;;;;;;1.10;0.50;;;;;;;13.40;100.00;100936.86;105313;1259;75147;-47
2023/05/10 07:56:34;;;;;;;1.20;0.40;;;;;;;13.47;100.00;100937.30;105374;1259;68644;-48
2023/05/10 07:59:03;;;;;;;0.70;0.40;;;;;;;13.49;100.00;100929.64;105317;1260;73803;-46
2023/05/10 08:01:31;;;;;;;1.50;0.40;;;;;;;13.46;100.00;100928.50;105268;1257;60453;-45
2023/05/10 08:03:57;;;;;;;0.60;0.40;;;;;;;13.46;100.00;100933.02;106701;1258;59813;-49
2023/05/10 08:06:26;;;;;;;0.70;0.40;;;;;;;13.44;100.00;100928.60;105000;1260;77668;-49
2023/05/10 08:08:54;;;;;;;1.00;0.50;;;;;;;13.40;100.00;100925.88;105246;1254;66157;-48
2023/05/10 08:11:20;;;;;;;0.70;0.40;;;;;;;13.45;100.00;100931.27;105325;1257;71176;-48
2023/05/10 08:13:48;;;;;;;1.80;0.40;;;;;;;13.53;100.00;100925.86;105295;1260;60507;-49
2023/05/10 08:16:16;;;;;;;2.60;0.40;;;;;;;13.63;100.00;100924.52;105750;1259;62523;-49
2023/05/10 08:18:44;;;;;;;0.50;0.40;;;;;;;13.76;100.00;100921.65;105668;1258;74430;-48
2023/05/10 08:21:11;;;;;;;2.50;0.50;;;;;;;13.84;100.00;100920.40;105638;1254;69733;-51
2023/05/10 08:23:38;;;;;;;0.70;0.40;;;;;;;13.92;100.00;100916.63;105336;1257;72880;-50
2023/05/10 08:26:06;;;;;;;0.90;0.50;;;;;;;14.00;100.00;100916.98;105416;1260;60696;-49
2023/05/10 08:28:32;;;;;;;1.80;0.40;;;;;;;14.08;100.00;100915.35;105310;1259;61887;-52
2023/05/10 08:30:59;;;;;;;1.70;0.50;;;;;;;14.15;100.00;100911.45;105329;1254;74000;-48
2023/05/10 08:33:26;;;;;;;0.80;0.40;;;;;;;14.15;100.00;100910.00;105625;1254;70066;-48
2023/05/10 08:35:54;;;;;;;1.60;0.40;;;;;;;14.11;100.00;100913.05;105874;1259;74747;-48
2023/05/10 08:38:20;;;;;;;3.00;0.40;;;;;;;14.13;100.00;100912.27;105244;1260;61171;-51
2023/05/10 08:40:47;;;;;;;3.80;0.50;;;;;;;14.14;100.00;100917.08;105212;1254;60608;-51
2023/05/10 08:43:17;;;;;;;2.50;0.50;;;;;;;14.16;100.00;100911.56;105021;1260;75919;-51
2023/05/10 08:45:47;;;;;;;1.70;0.50;;;;;;;14.21;100.00;100912.09;105174;1254;68147;-49
2023/05/10 08:48:14;;;;;;;1.40;0.50;;;;;;;14.12;100.00;100910.88;105049;1254;71939;-47
2023/05/10 08:50:41;;;;;;;3.60;0.40;;;;;;;13.97;100.00;100906.45;106908;1258;61132;-48
2023/05/10 08:53:12;;;;;;;0.70;0.30;;;;;;;13.92;100.00;100912.64;105297;1258;63043;-50
2023/05/10 08:55:40;;;;;;;0.70;0.40;;;;;;;13.88;100.00;100906.31;104968;1258;75167;-49
2023/05/10 08:58:06;;;;;;;0.70;0.40;;;;;;;13.84;100.00;100906.70;104597;1254;67776;-52
2023/05/10 09:00:33;;;;;;;4.30;0.40;;;;;;;13.73;100.00;100905.38;104625;1258;71344;-48
2023/05/10 09:03:01;;;;;;;2.60;0.80;;;;;;;13.59;100.00;100905.04;104995;1260;60643;-47
2023/05/10 09:05:28;;;;;;;2.20;0.60;;;;;;;13.55;100.00;100899.81;108768;1257;60199;-49
2023/05/10 09:07:54;;;;;;;0.90;0.40;;;;;;;13.52;100.00;100898.13;108872;1255;75002;-52
2023/05/10 09:10:21;;;;;;;2.20;0.30;;;;;;;13.42;100.00;100896.38;108827;1259;70251;-49
2023/05/10 09:12:48;;;;;;;1.70;0.50;;;;;;;13.27;100.00;100894.67;108936;1254;72946;-49
2023/05/10 09:15:15;;;;;;;0.50;0.30;;;;;;;13.06;100.00;100892.63;108946;1254;61648;-52
2023/05/10 09:17:42;;;;;;;0.50;0.30;;;;;;;12.91;100.00;100884.95;108936;1253;59665;-49
2023/05/10 09:20:09;;;;;;;0.80;0.40;;;;;;;12.84;100.00;100886.82;108793;1254;74985;-52
2023/05/10 09:22:37;;;;;;;2.80;0.40;;;;;;;12.81;100.00;100888.20;108569;1259;67037;-48
2023/05/10 09:25:14;;;;;;;3.30;0.40;;;;;;;12.79;100.00;100881.98;105104;1260;74498;-48
2023/05/10 09:27:45;;;;;;;2.10;0.30;;;;;;;12.79;100.00;100880.02;108956;1253;62308;-49
2023/05/10 09:30:16;;;;;;;0.50;0.30;;;;;;;12.76;100.00;100873.85;109063;1253;60016;-49
2023/05/10 09:32:44;;;;;;;0.40;0.30;;;;;;;12.77;100.00;100879.91;108546;1259;74171;-52
2023/05/10 09:35:17;;;;;;;0.70;0.30;;;;;;;12.80;100.00;100869.17;105356;1259;66934;-51
2023/05/10 09:37:46;;;;;;;1.30;0.40;;;;;;;12.85;100.00;100874.93;105683;1257;72807;-48
2023/05/10 09:40:23;;;;;;;1.30;0.30;;;;;;;12.88;100.00;100869.39;105031;1260;60895;-47
2023/05/10 09:42:52;;;;;;;1.00;0.40;;;;;;;12.92;100.00;100869.98;106041;1260;60431;-47
2023/05/10 09:45:18;;;;;;;0.90;0.30;;;;;;;12.99;100.00;100868.80;105458;1260;73237;-46
2023/05/10 09:47:45;;;;;;;0.40;0.30;;;;;;;13.01;100.00;100865.25;105495;1260;68978;-50
2023/05/10 09:50:12;;;;;;;0.90;0.40;;;;;;;12.98;100.00;100867.57;105707;1254;72967;-48
2023/05/10 09:52:58;;;;;;;2.50;0.30;;;;;;;12.93;100.00;100865.60;105521;1259;61401;-48
2023/05/10 09:55:38;;;;;;;2.40;0.30;;;;;;;12.88;100.00;100861.09;106869;1259;59744;-49
2023/05/10 09:58:09;;;;;;;1.20;0.30;;;;;;;12.87;100.00;100860.42;105656;1260;71938;-46
2023/05/10 10:00:36;;;;;;;0.80;0.40;;;;;;;12.88;100.00;100859.48;105502;1259;68205;-46
2023/05/10 10:03:04;;;;;;;0.40;0.30;;;;;;;12.87;100.00;100860.23;105398;1261;74076;-46
2023/05/10 10:05:35;;;;;;;1.10;0.30;;;;;;;12.86;100.00;100853.95;106890;1259;61459;-46
2023/05/10 10:08:05;;;;;;;1.70;0.40;;;;;;;12.85;100.00;100851.52;105568;1255;60540;-48
2023/05/10 10:10:32;;;;;;;2.10;0.40;;;;;;;12.88;100.00;100850.83;105532;1254;72793;-51
2023/05/10 10:12:59;;;;;;;1.80;0.30;;;;;;;12.94;100.00;100851.15;105425;1259;67911;-51
2023/05/10 10:15:26;;;;;;;2.20;0.30;;;;;;;13.00;100.00;100848.56;105378;1260;73063;-48
2023/05/10 10:17:53;;;;;;;0.60;0.30;;;;;;;13.05;100.00;100854.64;105410;1259;60389;-52
2023/05/10 10:20:20;;;;;;;0.60;0.40;;;;;;;13.07;100.00;100847.55;105588;1263;61032;-49
2023/05/10 10:22:47;;;;;;;3.20;0.30;;;;;;;13.04;100.00;100849.83;105436;1259;72075;-45
2023/05/10 10:25:15;;;;;;;3.90;0.40;;;;;;;13.06;100.00;100846.70;105557;1261;66155;-49
2023/05/10 10:27:51;;;;;;;3.50;0.20;;;;;;;13.08;100.00;100847.13;106442;1257;74966;-51
2023/05/10 10:30:43;;;;;;;4.70;0.40;;;;;;;13.14;100.00;100850.67;105401;1261;60371;-45
2023/05/10 10:33:17;;;;;;;1.20;0.40;;;;;;;13.18;100.00;100846.17;105865;1260;60457;-47
2023/05/10 10:35:54;;;;;;;1.70;0.30;;;;;;;13.19;100.00;100848.34;105668;1260;74133;-49
2023/05/10 10:38:21;;;;;;;3.40;0.40;;;;;;;13.19;100.00;100846.49;105563;1260;68576;-46
2023/05/10 10:40:48;;;;;;;1.30;0.30;;;;;;;13.22;100.00;100840.98;105654;1254;71375;-49
2023/05/10 10:43:22;;;;;;;1.60;0.50;;;;;;;13.25;100.00;100836.91;105579;1255;61288;-50
2023/05/10 10:46:07;;;;;;;3.10;0.20;;;;;;;13.26;100.00;100838.50;105705;1260;60756;-47
2023/05/10 10:48:34;;;;;;;2.80;0.40;;;;;;;13.22;100.00;100836.46;105401;1260;75165;-48
2023/05/10 10:51:01;;;;;;;0.70;0.40;;;;;;;13.21;100.00;100831.84;105211;1257;67671;-48
2023/05/10 10:53:28;;;;;;;0.70;0.30;;;;;;;13.24;100.00;100828.46;105334;1259;72909;-49
2023/05/10 10:56:09;;;;;;;0.70;0.40;;;;;;;13.29;100.00;100822.30;106269;1259;60906;-46
2023/05/10 10:58:37;;;;;;;4.30;0.30;;;;;;;13.32;100.00;100820.39;105776;1260;60319;-45
2023/05/10 11:01:17;;;;;;;2.20;0.30;;;;;;;13.33;100.00;100821.27;105819;1260;72875;-46
2023/05/10 11:04:02;;;;;;;0.80;0.40;;;;;;;13.37;100.00;100818.00;106370;1254;67898;-48
2023/05/10 11:06:33;;;;;;;1.80;0.40;;;;;;;13.44;100.00;100814.46;105609;1258;72863;-50
2023/05/10 11:09:07;;;;;;;1.10;0.30;;;;;;;13.44;100.00;100816.10;105153;1253;61109;-49
2023/05/10 11:11:34;;;;;;;0.40;0.30;;;;;;;13.45;100.00;100816.71;105320;1267;60414;-47
2023/05/10 11:14:06;;;;;;;0.30;0.30;;;;;;;13.50;100.00;100813.10;105365;1255;76036;-48
2023/05/10 11:16:42;;;;;;;0.40;0.30;;;;;;;13.56;100.00;100809.95;106755;1254;68083;-49
2023/05/10 11:19:16;;;;;;;0.60;0.40;;;;;;;13.63;100.00;100810.02;106013;1254;72975;-47